sensor_id;sensor_type;location;lat;lon;timestamp;pressure;altitude;pressure_sealevel;temperature;humidity
41230;BME280;26964;50.428;19.218;2022-09-09T00:03:02;1015.2;;;16.7;75.5
41230;BME280;26964;50.428;19.218;2022-09-09T00:07:59;1015.1;;;16.6;75.5
41230;BME280;26964;50.428;19.218;2022-09-09T00:13:01;1015.2;;;16.6;75.6
41230;BME280;26964;50.428;19.218;2022-09-09T00:18:02;1015.3;;;16.6;75.6
41230;BME280;26964;50.428;19.218;2022-09-09T00:23:03;1015.2;;;16.5;75.6
41230;BME280;26964;50.428;19.218;2022-09-09T00:27:57;1015.2;;;16.5;75.6
41230;BME280;26964;50.428;19.218;2022-09-09T00:32:59;1015.2;;;16.5;75.6
41230;BME280;26964;50.428;19.218;2022-09-09T00:38:02;1015.3;;;16.4;75.7
41230;BME280;26964;50.428;19.218;2022-09-09T00:47:58;1015.2;;;16.5;75.7
41230;BME280;26964;50.428;19.218;2022-09-09T00:57:58;1015.4;;;16.5;75.8
41230;BME280;26964;50.428;19.218;2022-09-09T01:07:58;1015.6;;;16.5;75.8
41230;BME280;26964;50.428;19.218;2022-09-09T01:13:00;1015.5;;;16.5;75.8
41230;BME280;26964;50.428;19.218;2022-09-09T01:18:02;1015.7;;;16.5;75.9
41230;BME280;26964;50.428;19.218;2022-09-09T01:28:01;1015.7;;;16.5;75.9
41230;BME280;26964;50.428;19.218;2022-09-09T01:32:58;1015.7;;;16.5;75.9
41230;BME280;26964;50.428;19.218;2022-09-09T01:37:57;1015.8;;;16.6;76.0
41230;BME280;26964;50.428;19.218;2022-09-09T01:42:57;1015.8;;;16.6;76.0
41230;BME280;26964;50.428;19.218;2022-09-09T01:47:57;1015.8;;;16.6;76.0
41230;BME280;26964;50.428;19.218;2022-09-09T01:52:58;1015.7;;;16.6;76.0
41230;BME280;26964;50.428;19.218;2022-09-09T02:03:03;1015.8;;;16.6;76.0
41230;BME280;26964;50.428;19.218;2022-09-09T02:08:03;1015.9;;;16.6;76.1
41230;BME280;26964;50.428;19.218;2022-09-09T02:13:01;1015.8;;;16.6;76.1
41230;BME280;26964;50.428;19.218;2022-09-09T02:17:58;1016.0;;;16.6;76.1
41230;BME280;26964;50.428;19.218;2022-09-09T02:22:57;1015.9;;;16.5;76.1
41230;BME280;26964;50.428;19.218;2022-09-09T02:27:57;1016.0;;;16.5;76.2
41230;BME280;26964;50.428;19.218;2022-09-09T02:32:58;1016.0;;;16.5;76.2
41230;BME280;26964;50.428;19.218;2022-09-09T02:37:59;1016.1;;;16.5;76.2
41230;BME280;26964;50.428;19.218;2022-09-09T02:42:57;1016.2;;;16.5;76.2
41230;BME280;26964;50.428;19.218;2022-09-09T02:48:02;1016.2;;;16.4;76.2
41230;BME280;26964;50.428;19.218;2022-09-09T02:53:04;1016.2;;;16.4;76.3
41230;BME280;26964;50.428;19.218;2022-09-09T02:57:57;1016.4;;;16.4;76.4
41230;BME280;26964;50.428;19.218;2022-09-09T03:02:56;1016.4;;;16.4;76.4
41230;BME280;26964;50.428;19.218;2022-09-09T03:07:57;1016.4;;;16.4;76.4
41230;BME280;26964;50.428;19.218;2022-09-09T03:12:57;1016.4;;;16.4;76.4
41230;BME280;26964;50.428;19.218;2022-09-09T03:17:57;1016.5;;;16.3;76.4
41230;BME280;26964;50.428;19.218;2022-09-09T03:22:57;1016.5;;;16.3;76.4
41230;BME280;26964;50.428;19.218;2022-09-09T03:27:57;1016.5;;;16.3;76.4
41230;BME280;26964;50.428;19.218;2022-09-09T03:32:57;1016.4;;;16.3;76.4
41230;BME280;26964;50.428;19.218;2022-09-09T03:37:57;1016.5;;;16.2;76.4
41230;BME280;26964;50.428;19.218;2022-09-09T03:42:57;1016.5;;;16.2;76.4
41230;BME280;26964;50.428;19.218;2022-09-09T03:47:57;1016.6;;;16.2;76.4
41230;BME280;26964;50.428;19.218;2022-09-09T03:52:57;1016.7;;;16.1;76.4
41230;BME280;26964;50.428;19.218;2022-09-09T03:57:56;1016.8;;;16.1;76.4
41230;BME280;26964;50.428;19.218;2022-09-09T04:02:56;1016.7;;;16.0;76.4
41230;BME280;26964;50.428;19.218;2022-09-09T04:07:56;1016.7;;;16.0;76.4
41230;BME280;26964;50.428;19.218;2022-09-09T04:12:56;1016.8;;;15.9;76.4
41230;BME280;26964;50.428;19.218;2022-09-09T04:17:56;1016.8;;;15.9;76.4
41230;BME280;26964;50.428;19.218;2022-09-09T04:22:57;1016.8;;;15.8;76.4
41230;BME280;26964;50.428;19.218;2022-09-09T04:27:57;1016.8;;;15.8;76.4
41230;BME280;26964;50.428;19.218;2022-09-09T04:32:57;1016.7;;;15.8;76.4
41230;BME280;26964;50.428;19.218;2022-09-09T04:37:56;1016.7;;;15.7;76.4
41230;BME280;26964;50.428;19.218;2022-09-09T04:42:58;1016.7;;;15.7;76.4
41230;BME280;26964;50.428;19.218;2022-09-09T04:47:57;1016.8;;;15.6;76.4
41230;BME280;26964;50.428;19.218;2022-09-09T04:53:01;1016.8;;;15.6;76.5
41230;BME280;26964;50.428;19.218;2022-09-09T04:57:57;1016.8;;;15.5;76.5
41230;BME280;26964;50.428;19.218;2022-09-09T05:02:57;1016.9;;;15.5;76.5
41230;BME280;26964;50.428;19.218;2022-09-09T05:08:01;1016.9;;;15.4;76.5
41230;BME280;26964;50.428;19.218;2022-09-09T05:12:57;1017.0;;;15.4;76.5
41230;BME280;26964;50.428;19.218;2022-09-09T05:17:57;1017.0;;;15.3;76.5
41230;BME280;26964;50.428;19.218;2022-09-09T05:22:56;1017.1;;;15.3;76.6
41230;BME280;26964;50.428;19.218;2022-09-09T05:27:58;1017.1;;;15.3;76.6
41230;BME280;26964;50.428;19.218;2022-09-09T05:32:56;1017.1;;;15.3;76.7
41230;BME280;26964;50.428;19.218;2022-09-09T05:38:00;1017.1;;;15.3;76.8
41230;BME280;26964;50.428;19.218;2022-09-09T05:43:00;1017.2;;;15.4;76.8
41230;BME280;26964;50.428;19.218;2022-09-09T05:47:57;1017.1;;;15.4;76.8
41230;BME280;26964;50.428;19.218;2022-09-09T05:52:57;1017.2;;;15.5;76.9
41230;BME280;26964;50.428;19.218;2022-09-09T05:57:57;1017.2;;;15.6;77.0
41230;BME280;26964;50.428;19.218;2022-09-09T06:02:57;1017.2;;;15.7;77.0
41230;BME280;26964;50.428;19.218;2022-09-09T06:07:57;1017.2;;;15.8;76.9
41230;BME280;26964;50.428;19.218;2022-09-09T06:12:56;1017.2;;;15.8;76.9
41230;BME280;26964;50.428;19.218;2022-09-09T06:17:57;1017.3;;;15.8;76.8
41230;BME280;26964;50.428;19.218;2022-09-09T06:22:57;1017.3;;;15.9;76.9
41230;BME280;26964;50.428;19.218;2022-09-09T06:27:56;1017.3;;;16.0;76.9
41230;BME280;26964;50.428;19.218;2022-09-09T06:32:57;1017.3;;;16.2;76.9
41230;BME280;26964;50.428;19.218;2022-09-09T06:37:57;1017.2;;;16.3;76.8
41230;BME280;26964;50.428;19.218;2022-09-09T06:43:00;1017.3;;;16.3;76.8
41230;BME280;26964;50.428;19.218;2022-09-09T06:47:56;1017.3;;;16.4;76.8
41230;BME280;26964;50.428;19.218;2022-09-09T06:52:57;1017.3;;;16.5;76.8
41230;BME280;26964;50.428;19.218;2022-09-09T06:57:57;1017.4;;;16.6;76.7
41230;BME280;26964;50.428;19.218;2022-09-09T07:02:57;1017.4;;;16.6;76.7
41230;BME280;26964;50.428;19.218;2022-09-09T07:07:57;1017.3;;;16.8;76.8
41230;BME280;26964;50.428;19.218;2022-09-09T07:12:56;1017.2;;;17.0;76.9
41230;BME280;26964;50.428;19.218;2022-09-09T07:18:00;1017.2;;;17.3;76.9
41230;BME280;26964;50.428;19.218;2022-09-09T07:22:57;1017.2;;;17.4;76.4
41230;BME280;26964;50.428;19.218;2022-09-09T07:27:56;1017.2;;;17.5;76.3
41230;BME280;26964;50.428;19.218;2022-09-09T07:32:57;1017.1;;;17.5;76.2
41230;BME280;26964;50.428;19.218;2022-09-09T07:37:56;1017.1;;;17.7;76.2
41230;BME280;26964;50.428;19.218;2022-09-09T07:42:57;1017.0;;;17.9;76.0
41230;BME280;26964;50.428;19.218;2022-09-09T07:47:57;1017.0;;;18.0;75.9
41230;BME280;26964;50.428;19.218;2022-09-09T07:52:57;1017.2;;;18.2;75.6
41230;BME280;26964;50.428;19.218;2022-09-09T07:57:56;1017.2;;;18.3;75.5
41230;BME280;26964;50.428;19.218;2022-09-09T08:02:57;1017.2;;;18.4;75.3
41230;BME280;26964;50.428;19.218;2022-09-09T08:07:57;1017.3;;;18.5;75.1
41230;BME280;26964;50.428;19.218;2022-09-09T08:12:56;1017.5;;;18.6;75.0
41230;BME280;26964;50.428;19.218;2022-09-09T08:17:56;1017.5;;;18.7;74.8
41230;BME280;26964;50.428;19.218;2022-09-09T08:22:56;1017.5;;;18.7;74.7
41230;BME280;26964;50.428;19.218;2022-09-09T08:27:56;1017.4;;;18.8;74.7
41230;BME280;26964;50.428;19.218;2022-09-09T08:32:57;1017.4;;;19.1;74.6
41230;BME280;26964;50.428;19.218;2022-09-09T08:37:57;1017.4;;;19.3;74.3
41230;BME280;26964;50.428;19.218;2022-09-09T08:42:57;1017.4;;;19.5;74.2
41230;BME280;26964;50.428;19.218;2022-09-09T08:48:03;1017.4;;;19.7;74.0
41230;BME280;26964;50.428;19.218;2022-09-09T08:53:01;1017.4;;;19.9;73.7
41230;BME280;26964;50.428;19.218;2022-09-09T08:57:58;1017.4;;;20.1;73.1
41230;BME280;26964;50.428;19.218;2022-09-09T09:03:01;1017.4;;;20.1;73.0
41230;BME280;26964;50.428;19.218;2022-09-09T09:08:02;1017.3;;;20.1;72.7
41230;BME280;26964;50.428;19.218;2022-09-09T09:12:57;1017.4;;;20.1;72.6
41230;BME280;26964;50.428;19.218;2022-09-09T09:17:56;1017.3;;;20.2;72.2
41230;BME280;26964;50.428;19.218;2022-09-09T09:23:00;1017.3;;;20.4;72.0
41230;BME280;26964;50.428;19.218;2022-09-09T09:27:59;1017.5;;;20.6;71.8
41230;BME280;26964;50.428;19.218;2022-09-09T09:33:02;1017.5;;;20.6;71.4
41230;BME280;26964;50.428;19.218;2022-09-09T09:37:56;1017.4;;;20.7;71.2
41230;BME280;26964;50.428;19.218;2022-09-09T09:42:58;1017.5;;;20.8;70.9
41230;BME280;26964;50.428;19.218;2022-09-09T09:47:58;1017.5;;;20.7;70.6
41230;BME280;26964;50.428;19.218;2022-09-09T09:52:57;1017.4;;;20.8;70.4
41230;BME280;26964;50.428;19.218;2022-09-09T09:58:02;1017.4;;;20.9;70.4
41230;BME280;26964;50.428;19.218;2022-09-09T10:02:57;1017.5;;;21.1;70.0
41230;BME280;26964;50.428;19.218;2022-09-09T10:13:02;1017.4;;;21.3;69.2
41230;BME280;26964;50.428;19.218;2022-09-09T10:18:02;1017.5;;;21.3;68.9
41230;BME280;26964;50.428;19.218;2022-09-09T10:23:03;1017.6;;;21.3;68.7
41230;BME280;26964;50.428;19.218;2022-09-09T10:33:02;1017.5;;;21.5;68.3
41230;BME280;26964;50.428;19.218;2022-09-09T10:53:01;1017.7;;;22.0;67.1
41230;BME280;26964;50.428;19.218;2022-09-09T10:57:58;1017.7;;;22.0;66.8
41230;BME280;26964;50.428;19.218;2022-09-09T11:02:58;1017.6;;;22.0;66.5
41230;BME280;26964;50.428;19.218;2022-09-09T11:07:59;1017.7;;;21.9;66.4
41230;BME280;26964;50.428;19.218;2022-09-09T11:13:01;1017.6;;;22.0;66.2
41230;BME280;26964;50.428;19.218;2022-09-09T11:18:01;1017.7;;;22.4;66.1
41230;BME280;26964;50.428;19.218;2022-09-09T11:23:01;1017.6;;;22.7;65.6
41230;BME280;26964;50.428;19.218;2022-09-09T11:47:57;1017.7;;;23.0;63.9
41230;BME280;26964;50.428;19.218;2022-09-09T11:57:58;1017.6;;;23.2;63.0
41230;BME280;26964;50.428;19.218;2022-09-09T12:02:56;1017.6;;;23.2;62.8
41230;BME280;26964;50.428;19.218;2022-09-09T12:07:57;1017.6;;;23.2;62.5
41230;BME280;26964;50.428;19.218;2022-09-09T12:17:58;1017.6;;;23.4;61.6
41230;BME280;26964;50.428;19.218;2022-09-09T12:28:02;1017.6;;;23.3;61.2
41230;BME280;26964;50.428;19.218;2022-09-09T12:33:01;1017.5;;;23.4;61.1
41230;BME280;26964;50.428;19.218;2022-09-09T12:37:58;1017.5;;;23.4;60.1
41230;BME280;26964;50.428;19.218;2022-09-09T12:42:56;1017.6;;;23.3;60.1
41230;BME280;26964;50.428;19.218;2022-09-09T12:47:58;1017.6;;;23.3;60.0
41230;BME280;26964;50.428;19.218;2022-09-09T12:57:57;1017.6;;;23.3;59.5
41230;BME280;26964;50.428;19.218;2022-09-09T13:02:58;1017.7;;;23.3;59.2
41230;BME280;26964;50.428;19.218;2022-09-09T13:08:00;1017.6;;;23.0;59.1
41230;BME280;26964;50.428;19.218;2022-09-09T13:12:56;1017.6;;;22.9;59.1
41230;BME280;26964;50.428;19.218;2022-09-09T13:17:59;1017.5;;;22.8;59.0
41230;BME280;26964;50.428;19.218;2022-09-09T13:22:58;1017.5;;;22.7;58.8
41230;BME280;26964;50.428;19.218;2022-09-09T13:27:58;1017.5;;;22.5;58.7
41230;BME280;26964;50.428;19.218;2022-09-09T13:37:57;1017.3;;;22.5;58.5
41230;BME280;26964;50.428;19.218;2022-09-09T13:42:57;1017.3;;;22.5;58.1
41230;BME280;26964;50.428;19.218;2022-09-09T13:47:56;1017.3;;;22.5;58.2
41230;BME280;26964;50.428;19.218;2022-09-09T13:52:57;1017.2;;;22.4;58.2
41230;BME280;26964;50.428;19.218;2022-09-09T13:57:57;1017.2;;;22.3;58.1
41230;BME280;26964;50.428;19.218;2022-09-09T14:02:56;1017.2;;;22.3;58.1
41230;BME280;26964;50.428;19.218;2022-09-09T14:07:57;1017.1;;;22.3;58.1
41230;BME280;26964;50.428;19.218;2022-09-09T14:12:57;1017.1;;;22.3;58.0
41230;BME280;26964;50.428;19.218;2022-09-09T14:17:56;1017.2;;;22.2;57.9
41230;BME280;26964;50.428;19.218;2022-09-09T14:22:57;1017.1;;;22.2;57.9
41230;BME280;26964;50.428;19.218;2022-09-09T14:27:56;1017.0;;;22.2;57.7
41230;BME280;26964;50.428;19.218;2022-09-09T14:32:56;1017.0;;;22.1;57.8
41230;BME280;26964;50.428;19.218;2022-09-09T14:37:57;1016.9;;;22.0;57.7
41230;BME280;26964;50.428;19.218;2022-09-09T14:42:56;1017.0;;;22.0;57.6
41230;BME280;26964;50.428;19.218;2022-09-09T14:47:56;1016.8;;;22.0;57.6
41230;BME280;26964;50.428;19.218;2022-09-09T14:52:56;1016.9;;;22.0;57.6
41230;BME280;26964;50.428;19.218;2022-09-09T14:57:56;1016.8;;;22.1;57.4
41230;BME280;26964;50.428;19.218;2022-09-09T15:02:56;1016.8;;;22.0;57.3
41230;BME280;26964;50.428;19.218;2022-09-09T15:07:55;1016.9;;;22.0;57.1
41230;BME280;26964;50.428;19.218;2022-09-09T15:12:55;1016.9;;;21.9;57.2
41230;BME280;26964;50.428;19.218;2022-09-09T15:17:56;1017.0;;;21.9;57.1
41230;BME280;26964;50.428;19.218;2022-09-09T15:22:56;1017.0;;;21.9;57.1
41230;BME280;26964;50.428;19.218;2022-09-09T15:27:56;1016.9;;;21.9;56.9
41230;BME280;26964;50.428;19.218;2022-09-09T15:32:56;1017.0;;;21.9;56.9
41230;BME280;26964;50.428;19.218;2022-09-09T15:37:56;1017.0;;;21.8;57.0
41230;BME280;26964;50.428;19.218;2022-09-09T15:42:57;1016.9;;;21.8;56.9
41230;BME280;26964;50.428;19.218;2022-09-09T15:48:00;1017.0;;;21.7;56.9
41230;BME280;26964;50.428;19.218;2022-09-09T15:52:58;1016.9;;;21.5;57.1
41230;BME280;26964;50.428;19.218;2022-09-09T15:58:00;1017.0;;;21.4;57.5
41230;BME280;26964;50.428;19.218;2022-09-09T16:02:59;1017.0;;;21.3;57.6
41230;BME280;26964;50.428;19.218;2022-09-09T16:07:59;1017.0;;;21.2;57.9
41230;BME280;26964;50.428;19.218;2022-09-09T16:12:59;1017.0;;;21.0;58.0
41230;BME280;26964;50.428;19.218;2022-09-09T16:17:58;1017.0;;;20.8;58.3
41230;BME280;26964;50.428;19.218;2022-09-09T16:22:58;1016.9;;;20.5;58.6
41230;BME280;26964;50.428;19.218;2022-09-09T16:27:59;1016.8;;;20.3;58.7
41230;BME280;26964;50.428;19.218;2022-09-09T16:32:59;1016.8;;;20.0;58.9
41230;BME280;26964;50.428;19.218;2022-09-09T16:37:59;1016.9;;;19.8;59.2
41230;BME280;26964;50.428;19.218;2022-09-09T16:42:58;1016.9;;;19.6;59.3
41230;BME280;26964;50.428;19.218;2022-09-09T16:48:00;1016.8;;;19.4;59.5
41230;BME280;26964;50.428;19.218;2022-09-09T16:52:59;1016.8;;;19.2;59.7
41230;BME280;26964;50.428;19.218;2022-09-09T16:57:59;1016.7;;;19.0;59.8
41230;BME280;26964;50.428;19.218;2022-09-09T17:02:59;1016.8;;;18.8;60.0
41230;BME280;26964;50.428;19.218;2022-09-09T17:07:58;1016.8;;;18.5;60.2
41230;BME280;26964;50.428;19.218;2022-09-09T17:12:59;1016.9;;;18.4;60.5
41230;BME280;26964;50.428;19.218;2022-09-09T17:17:59;1016.9;;;18.2;60.6
41230;BME280;26964;50.428;19.218;2022-09-09T17:22:58;1016.9;;;18.0;60.8
41230;BME280;26964;50.428;19.218;2022-09-09T17:27:59;1016.9;;;17.9;61.1
41230;BME280;26964;50.428;19.218;2022-09-09T17:32:59;1017.0;;;17.7;61.4
41230;BME280;26964;50.428;19.218;2022-09-09T17:37:58;1017.0;;;17.6;61.6
41230;BME280;26964;50.428;19.218;2022-09-09T17:42:59;1017.1;;;17.5;61.7
41230;BME280;26964;50.428;19.218;2022-09-09T17:47:59;1017.1;;;17.5;61.9
41230;BME280;26964;50.428;19.218;2022-09-09T17:52:58;1017.2;;;17.4;62.1
41230;BME280;26964;50.428;19.218;2022-09-09T17:57:59;1017.4;;;17.3;62.3
41230;BME280;26964;50.428;19.218;2022-09-09T18:02:58;1017.3;;;17.2;62.3
41230;BME280;26964;50.428;19.218;2022-09-09T18:07:59;1017.3;;;17.0;62.5
41230;BME280;26964;50.428;19.218;2022-09-09T18:12:59;1017.3;;;16.8;62.9
41230;BME280;26964;50.428;19.218;2022-09-09T18:17:59;1017.3;;;16.7;63.1
41230;BME280;26964;50.428;19.218;2022-09-09T18:22:58;1017.3;;;16.6;63.3
41230;BME280;26964;50.428;19.218;2022-09-09T18:27:59;1017.2;;;16.5;63.5
41230;BME280;26964;50.428;19.218;2022-09-09T18:32:59;1017.3;;;16.5;63.8
41230;BME280;26964;50.428;19.218;2022-09-09T18:37:58;1017.3;;;16.4;64.0
41230;BME280;26964;50.428;19.218;2022-09-09T18:42:58;1017.3;;;16.4;64.3
41230;BME280;26964;50.428;19.218;2022-09-09T18:47:58;1017.4;;;16.4;64.4
41230;BME280;26964;50.428;19.218;2022-09-09T18:52:59;1017.4;;;16.4;64.7
41230;BME280;26964;50.428;19.218;2022-09-09T18:57:58;1017.5;;;16.4;64.9
41230;BME280;26964;50.428;19.218;2022-09-09T19:02:59;1017.6;;;16.4;65.1
41230;BME280;26964;50.428;19.218;2022-09-09T19:07:58;1017.5;;;16.4;65.3
41230;BME280;26964;50.428;19.218;2022-09-09T19:12:58;1017.6;;;16.4;65.4
41230;BME280;26964;50.428;19.218;2022-09-09T19:17:58;1017.6;;;16.4;65.5
41230;BME280;26964;50.428;19.218;2022-09-09T19:22:59;1017.6;;;16.4;65.6
41230;BME280;26964;50.428;19.218;2022-09-09T19:27:58;1017.5;;;16.3;65.7
41230;BME280;26964;50.428;19.218;2022-09-09T19:32:58;1017.4;;;16.3;65.9
41230;BME280;26964;50.428;19.218;2022-09-09T19:37:58;1017.4;;;16.2;66.0
41230;BME280;26964;50.428;19.218;2022-09-09T19:42:59;1017.5;;;16.1;66.2
41230;BME280;26964;50.428;19.218;2022-09-09T19:47:58;1017.4;;;16.1;66.3
41230;BME280;26964;50.428;19.218;2022-09-09T19:52:59;1017.4;;;16.1;66.3
41230;BME280;26964;50.428;19.218;2022-09-09T19:57:58;1017.3;;;16.1;66.4
41230;BME280;26964;50.428;19.218;2022-09-09T20:02:58;1017.4;;;16.1;66.5
41230;BME280;26964;50.428;19.218;2022-09-09T20:07:59;1017.5;;;16.0;66.6
41230;BME280;26964;50.428;19.218;2022-09-09T20:12:59;1017.5;;;16.0;66.7
41230;BME280;26964;50.428;19.218;2022-09-09T20:17:59;1017.4;;;16.0;66.8
41230;BME280;26964;50.428;19.218;2022-09-09T20:22:59;1017.5;;;16.0;66.9
41230;BME280;26964;50.428;19.218;2022-09-09T20:27:59;1017.5;;;16.0;67.0
41230;BME280;26964;50.428;19.218;2022-09-09T20:32:58;1017.4;;;16.0;67.1
41230;BME280;26964;50.428;19.218;2022-09-09T20:37:58;1017.4;;;15.9;67.3
41230;BME280;26964;50.428;19.218;2022-09-09T20:42:59;1017.4;;;15.9;67.4
41230;BME280;26964;50.428;19.218;2022-09-09T20:47:59;1017.4;;;15.9;67.5
41230;BME280;26964;50.428;19.218;2022-09-09T20:52:59;1017.3;;;15.8;67.5
41230;BME280;26964;50.428;19.218;2022-09-09T20:57:58;1017.3;;;15.8;67.7
41230;BME280;26964;50.428;19.218;2022-09-09T21:02:59;1017.3;;;15.8;67.8
41230;BME280;26964;50.428;19.218;2022-09-09T21:07:59;1017.3;;;15.8;67.9
41230;BME280;26964;50.428;19.218;2022-09-09T21:12:58;1017.3;;;15.8;68.0
41230;BME280;26964;50.428;19.218;2022-09-09T21:17:59;1017.3;;;15.7;68.1
41230;BME280;26964;50.428;19.218;2022-09-09T21:22:59;1017.2;;;15.7;68.2
41230;BME280;26964;50.428;19.218;2022-09-09T21:27:58;1017.2;;;15.7;68.3
41230;BME280;26964;50.428;19.218;2022-09-09T21:32:58;1017.3;;;15.7;68.4
41230;BME280;26964;50.428;19.218;2022-09-09T21:37:59;1017.3;;;15.6;68.5
41230;BME280;26964;50.428;19.218;2022-09-09T21:42:58;1017.3;;;15.6;68.6
41230;BME280;26964;50.428;19.218;2022-09-09T21:47:59;1017.3;;;15.6;68.6
41230;BME280;26964;50.428;19.218;2022-09-09T21:52:59;1017.3;;;15.6;68.6
41230;BME280;26964;50.428;19.218;2022-09-09T21:57:58;1017.4;;;15.6;68.7
41230;BME280;26964;50.428;19.218;2022-09-09T22:02:58;1017.4;;;15.6;68.7
41230;BME280;26964;50.428;19.218;2022-09-09T22:07:59;1017.4;;;15.6;68.8
41230;BME280;26964;50.428;19.218;2022-09-09T22:12:58;1017.3;;;15.5;69.0
41230;BME280;26964;50.428;19.218;2022-09-09T22:17:59;1017.2;;;15.4;69.1
41230;BME280;26964;50.428;19.218;2022-09-09T22:22:58;1017.2;;;15.4;69.2
41230;BME280;26964;50.428;19.218;2022-09-09T22:27:58;1017.2;;;15.4;69.3
41230;BME280;26964;50.428;19.218;2022-09-09T22:32:58;1017.2;;;15.4;69.4
41230;BME280;26964;50.428;19.218;2022-09-09T22:37:58;1017.1;;;15.4;69.4
41230;BME280;26964;50.428;19.218;2022-09-09T22:42:58;1017.1;;;15.3;69.6
41230;BME280;26964;50.428;19.218;2022-09-09T22:47:58;1017.1;;;15.4;69.7
41230;BME280;26964;50.428;19.218;2022-09-09T22:52:59;1017.0;;;15.4;69.8
41230;BME280;26964;50.428;19.218;2022-09-09T22:58:01;1017.0;;;15.4;69.9
41230;BME280;26964;50.428;19.218;2022-09-09T23:02:58;1017.0;;;15.4;70.0
41230;BME280;26964;50.428;19.218;2022-09-09T23:07:58;1017.0;;;15.4;70.1
41230;BME280;26964;50.428;19.218;2022-09-09T23:12:58;1016.9;;;15.4;70.2
41230;BME280;26964;50.428;19.218;2022-09-09T23:17:59;1017.0;;;15.4;70.3
41230;BME280;26964;50.428;19.218;2022-09-09T23:22:58;1017.0;;;15.4;70.4
41230;BME280;26964;50.428;19.218;2022-09-09T23:27:59;1017.0;;;15.4;70.4
41230;BME280;26964;50.428;19.218;2022-09-09T23:32:59;1016.9;;;15.4;70.5
41230;BME280;26964;50.428;19.218;2022-09-09T23:37:58;1016.9;;;15.4;70.6
41230;BME280;26964;50.428;19.218;2022-09-09T23:42:59;1016.9;;;15.4;70.7
41230;BME280;26964;50.428;19.218;2022-09-09T23:47:59;1016.8;;;15.4;70.7
41230;BME280;26964;50.428;19.218;2022-09-09T23:52:58;1016.9;;;15.4;70.9
41230;BME280;26964;50.428;19.218;2022-09-09T23:57:58;1016.8;;;15.4;70.9
